sensor_id;sensor_type;location;lat;lon;timestamp;pressure;altitude;pressure_sealevel;temperature
80962;BMP280;70424;55.154;14.722;2024-01-15T00:02:02;98394.25;;;2.29
80962;BMP280;70424;55.154;14.722;2024-01-15T00:04:28;98397.75;;;2.32
80962;BMP280;70424;55.154;14.722;2024-01-15T00:06:53;98382.75;;;2.29
80962;BMP280;70424;55.154;14.722;2024-01-15T00:09:19;98372.53;;;2.27
80962;BMP280;70424;55.154;14.722;2024-01-15T00:11:44;98377.22;;;2.27
80962;BMP280;70424;55.154;14.722;2024-01-15T00:14:10;98367.88;;;2.28
80962;BMP280;70424;55.154;14.722;2024-01-15T00:16:35;98360.34;;;2.26
80962;BMP280;70424;55.154;14.722;2024-01-15T00:19:01;98360.94;;;2.25
80962;BMP280;70424;55.154;14.722;2024-01-15T00:21:26;98351.56;;;2.26
80962;BMP280;70424;55.154;14.722;2024-01-15T00:23:53;98357.81;;;2.28
80962;BMP280;70424;55.154;14.722;2024-01-15T00:26:18;98325.28;;;2.14
80962;BMP280;70424;55.154;14.722;2024-01-15T00:28:44;98332.22;;;2.17
80962;BMP280;70424;55.154;14.722;2024-01-15T00:31:09;98345.75;;;2.29
80962;BMP280;70424;55.154;14.722;2024-01-15T00:33:35;98350.63;;;2.33
80962;BMP280;70424;55.154;14.722;2024-01-15T00:36:00;98320.75;;;2.17
80962;BMP280;70424;55.154;14.722;2024-01-15T00:38:26;98309.81;;;2.15
80962;BMP280;70424;55.154;14.722;2024-01-15T00:40:51;98330.47;;;2.34
80962;BMP280;70424;55.154;14.722;2024-01-15T00:43:17;98321.25;;;2.37
80962;BMP280;70424;55.154;14.722;2024-01-15T00:45:44;98315.97;;;2.39
80962;BMP280;70424;55.154;14.722;2024-01-15T00:48:09;98304.50;;;2.38
80962;BMP280;70424;55.154;14.722;2024-01-15T00:50:35;98300.13;;;2.33
80962;BMP280;70424;55.154;14.722;2024-01-15T00:53:00;98291.72;;;2.39
80962;BMP280;70424;55.154;14.722;2024-01-15T00:55:27;98301.09;;;2.38
80962;BMP280;70424;55.154;14.722;2024-01-15T00:57:53;98298.66;;;2.42
80962;BMP280;70424;55.154;14.722;2024-01-15T01:00:18;98287.19;;;2.41
80962;BMP280;70424;55.154;14.722;2024-01-15T01:02:44;98283.75;;;2.41
80962;BMP280;70424;55.154;14.722;2024-01-15T01:05:09;98274.97;;;2.40
80962;BMP280;70424;55.154;14.722;2024-01-15T01:07:35;98274.97;;;2.40
80962;BMP280;70424;55.154;14.722;2024-01-15T01:10:00;98248.47;;;2.25
80962;BMP280;70424;55.154;14.722;2024-01-15T01:12:26;98263.63;;;2.42
80962;BMP280;70424;55.154;14.722;2024-01-15T01:14:51;98262.78;;;2.39
80962;BMP280;70424;55.154;14.722;2024-01-15T01:17:17;98259.25;;;2.37
80962;BMP280;70424;55.154;14.722;2024-01-15T01:19:42;98245.19;;;2.27
80962;BMP280;70424;55.154;14.722;2024-01-15T01:22:08;98246.13;;;2.31
80962;BMP280;70424;55.154;14.722;2024-01-15T01:24:36;98246.38;;;2.35
80962;BMP280;70424;55.154;14.722;2024-01-15T01:27:01;98243.09;;;2.37
80962;BMP280;70424;55.154;14.722;2024-01-15T01:29:27;98241.56;;;2.34
80962;BMP280;70424;55.154;14.722;2024-01-15T01:31:52;98213.56;;;2.15
80962;BMP280;70424;55.154;14.722;2024-01-15T01:34:18;98227.03;;;2.27
80962;BMP280;70424;55.154;14.722;2024-01-15T01:36:43;98237.72;;;2.37
80962;BMP280;70424;55.154;14.722;2024-01-15T01:39:09;98234.75;;;2.33
80962;BMP280;70424;55.154;14.722;2024-01-15T01:41:34;98230.66;;;2.32
80962;BMP280;70424;55.154;14.722;2024-01-15T01:44:00;98222.81;;;2.36
80962;BMP280;70424;55.154;14.722;2024-01-15T01:46:27;98216.59;;;2.33
80962;BMP280;70424;55.154;14.722;2024-01-15T01:48:53;98196.47;;;2.23
80962;BMP280;70424;55.154;14.722;2024-01-15T01:51:21;98221.41;;;2.35
80962;BMP280;70424;55.154;14.722;2024-01-15T01:53:48;98206.66;;;2.36
80962;BMP280;70424;55.154;14.722;2024-01-15T01:56:14;98204.66;;;2.36
80962;BMP280;70424;55.154;14.722;2024-01-15T01:58:40;98184.25;;;2.21
80962;BMP280;70424;55.154;14.722;2024-01-15T02:01:06;98186.94;;;2.33
80962;BMP280;70424;55.154;14.722;2024-01-15T02:03:36;98184.25;;;2.33
80962;BMP280;70424;55.154;14.722;2024-01-15T02:06:01;98194.09;;;2.40
80962;BMP280;70424;55.154;14.722;2024-01-15T02:08:27;98172.53;;;2.40
80962;BMP280;70424;55.154;14.722;2024-01-15T02:10:52;98166.78;;;2.34
80962;BMP280;70424;55.154;14.722;2024-01-15T02:13:18;98162.25;;;2.37
80962;BMP280;70424;55.154;14.722;2024-01-15T02:15:44;98159.66;;;2.39
80962;BMP280;70424;55.154;14.722;2024-01-15T02:18:09;98149.00;;;2.41
80962;BMP280;70424;55.154;14.722;2024-01-15T02:20:35;98124.53;;;2.25
80962;BMP280;70424;55.154;14.722;2024-01-15T02:23:10;98144.66;;;2.47
80962;BMP280;70424;55.154;14.722;2024-01-15T02:25:40;98124.97;;;2.45
80962;BMP280;70424;55.154;14.722;2024-01-15T02:28:06;98129.06;;;2.46
80962;BMP280;70424;55.154;14.722;2024-01-15T02:30:36;98082.13;;;2.26
80962;BMP280;70424;55.154;14.722;2024-01-15T02:33:03;98105.75;;;2.51
80962;BMP280;70424;55.154;14.722;2024-01-15T02:35:28;98099.66;;;2.50
80962;BMP280;70424;55.154;14.722;2024-01-15T02:37:54;98095.91;;;2.55
80962;BMP280;70424;55.154;14.722;2024-01-15T02:40:19;98093.94;;;2.56
80962;BMP280;70424;55.154;14.722;2024-01-15T02:42:44;98061.59;;;2.44
80962;BMP280;70424;55.154;14.722;2024-01-15T02:45:10;98056.78;;;2.42
80962;BMP280;70424;55.154;14.722;2024-01-15T02:47:35;98065.66;;;2.57
80962;BMP280;70424;55.154;14.722;2024-01-15T02:50:01;98059.34;;;2.52
80962;BMP280;70424;55.154;14.722;2024-01-15T02:52:26;98056.19;;;2.56
80962;BMP280;70424;55.154;14.722;2024-01-15T02:54:51;98035.69;;;2.51
80962;BMP280;70424;55.154;14.722;2024-01-15T02:57:18;98029.94;;;2.56
80962;BMP280;70424;55.154;14.722;2024-01-15T02:59:43;98052.78;;;2.55
80962;BMP280;70424;55.154;14.722;2024-01-15T03:02:09;98030.53;;;2.55
80962;BMP280;70424;55.154;14.722;2024-01-15T03:04:34;98029.59;;;2.50
80962;BMP280;70424;55.154;14.722;2024-01-15T03:06:59;98023.38;;;2.47
80962;BMP280;70424;55.154;14.722;2024-01-15T03:09:25;98005.69;;;2.44
80962;BMP280;70424;55.154;14.722;2024-01-15T03:11:50;97989.34;;;2.29
80962;BMP280;70424;55.154;14.722;2024-01-15T03:14:15;97937.75;;;2.09
80962;BMP280;70424;55.154;14.722;2024-01-15T03:16:41;97984.28;;;2.35
80962;BMP280;70424;55.154;14.722;2024-01-15T03:19:07;97978.75;;;2.44
80962;BMP280;70424;55.154;14.722;2024-01-15T03:21:32;97954.91;;;2.27
80962;BMP280;70424;55.154;14.722;2024-01-15T03:23:57;97961.44;;;2.36
80962;BMP280;70424;55.154;14.722;2024-01-15T03:26:23;97962.84;;;2.37
80962;BMP280;70424;55.154;14.722;2024-01-15T03:28:48;97958.13;;;2.37
80962;BMP280;70424;55.154;14.722;2024-01-15T03:31:13;97933.66;;;2.33
80962;BMP280;70424;55.154;14.722;2024-01-15T03:33:39;97923.53;;;2.20
80962;BMP280;70424;55.154;14.722;2024-01-15T03:36:05;97949.03;;;2.31
80962;BMP280;70424;55.154;14.722;2024-01-15T03:38:30;97925.41;;;2.17
80962;BMP280;70424;55.154;14.722;2024-01-15T03:40:55;97923.88;;;2.14
80962;BMP280;70424;55.154;14.722;2024-01-15T03:43:21;97911.25;;;2.17
80962;BMP280;70424;55.154;14.722;2024-01-15T03:45:46;97912.66;;;2.18
80962;BMP280;70424;55.154;14.722;2024-01-15T03:48:12;97897.66;;;2.15
80962;BMP280;70424;55.154;14.722;2024-01-15T03:50:37;97891.22;;;2.08
80962;BMP280;70424;55.154;14.722;2024-01-15T03:53:03;97872.28;;;2.06
80962;BMP280;70424;55.154;14.722;2024-01-15T03:55:28;97845.97;;;1.93
80962;BMP280;70424;55.154;14.722;2024-01-15T03:57:54;97878.22;;;2.16
80962;BMP280;70424;55.154;14.722;2024-01-15T04:00:20;97846.16;;;2.09
80962;BMP280;70424;55.154;14.722;2024-01-15T04:02:45;97851.50;;;2.20
80962;BMP280;70424;55.154;14.722;2024-01-15T04:05:10;97851.63;;;2.23
80962;BMP280;70424;55.154;14.722;2024-01-15T04:07:36;97851.25;;;2.28
80962;BMP280;70424;55.154;14.722;2024-01-15T04:10:01;97821.75;;;2.18
80962;BMP280;70424;55.154;14.722;2024-01-15T04:12:28;97849.66;;;2.37
80962;BMP280;70424;55.154;14.722;2024-01-15T04:14:53;97831.66;;;2.28
80962;BMP280;70424;55.154;14.722;2024-01-15T04:17:19;97832.38;;;2.28
80962;BMP280;70424;55.154;14.722;2024-01-15T04:19:44;97832.84;;;2.25
80962;BMP280;70424;55.154;14.722;2024-01-15T04:22:10;97835.25;;;2.32
80962;BMP280;70424;55.154;14.722;2024-01-15T04:24:35;97827.09;;;2.30
80962;BMP280;70424;55.154;14.722;2024-01-15T04:27:01;97815.28;;;2.24
80962;BMP280;70424;55.154;14.722;2024-01-15T04:29:26;97805.69;;;2.20
80962;BMP280;70424;55.154;14.722;2024-01-15T04:31:53;97798.09;;;2.17
80962;BMP280;70424;55.154;14.722;2024-01-15T04:34:18;97803.81;;;2.23
80962;BMP280;70424;55.154;14.722;2024-01-15T04:36:43;97804.91;;;2.32
80962;BMP280;70424;55.154;14.722;2024-01-15T04:39:09;97797.13;;;2.24
80962;BMP280;70424;55.154;14.722;2024-01-15T04:41:36;97781.63;;;2.11
80962;BMP280;70424;55.154;14.722;2024-01-15T04:44:02;97819.69;;;2.31
80962;BMP280;70424;55.154;14.722;2024-01-15T04:46:27;97791.31;;;2.16
80962;BMP280;70424;55.154;14.722;2024-01-15T04:48:52;97806.72;;;2.27
80962;BMP280;70424;55.154;14.722;2024-01-15T04:51:18;97803.69;;;2.21
80962;BMP280;70424;55.154;14.722;2024-01-15T04:53:44;97805.91;;;2.25
80962;BMP280;70424;55.154;14.722;2024-01-15T04:56:09;97782.91;;;2.10
80962;BMP280;70424;55.154;14.722;2024-01-15T04:58:35;97795.03;;;2.23
80962;BMP280;70424;55.154;14.722;2024-01-15T05:01:00;97783.25;;;2.16
80962;BMP280;70424;55.154;14.722;2024-01-15T05:03:25;97803.44;;;2.29
80962;BMP280;70424;55.154;14.722;2024-01-15T05:05:51;97803.44;;;2.29
80962;BMP280;70424;55.154;14.722;2024-01-15T05:08:16;97802.75;;;2.28
80962;BMP280;70424;55.154;14.722;2024-01-15T05:10:41;97794.91;;;2.20
80962;BMP280;70424;55.154;14.722;2024-01-15T05:13:07;97785.94;;;2.16
80962;BMP280;70424;55.154;14.722;2024-01-15T05:15:32;97799.59;;;2.20
80962;BMP280;70424;55.154;14.722;2024-01-15T05:17:58;97800.31;;;2.20
80962;BMP280;70424;55.154;14.722;2024-01-15T05:20:23;97804.28;;;2.19
80962;BMP280;70424;55.154;14.722;2024-01-15T05:22:48;97796.00;;;2.15
80962;BMP280;70424;55.154;14.722;2024-01-15T05:25:14;97796.13;;;2.17
80962;BMP280;70424;55.154;14.722;2024-01-15T05:27:39;97771.13;;;2.03
80962;BMP280;70424;55.154;14.722;2024-01-15T05:30:05;97784.50;;;2.15
80962;BMP280;70424;55.154;14.722;2024-01-15T05:32:32;97788.81;;;2.20
80962;BMP280;70424;55.154;14.722;2024-01-15T05:34:57;97778.00;;;2.06
80962;BMP280;70424;55.154;14.722;2024-01-15T05:37:22;97792.13;;;2.18
80962;BMP280;70424;55.154;14.722;2024-01-15T05:39:48;97800.44;;;2.23
80962;BMP280;70424;55.154;14.722;2024-01-15T05:42:13;97781.63;;;2.11
80962;BMP280;70424;55.154;14.722;2024-01-15T05:44:39;97789.31;;;2.16
80962;BMP280;70424;55.154;14.722;2024-01-15T05:47:04;97807.22;;;2.24
80962;BMP280;70424;55.154;14.722;2024-01-15T05:49:30;97797.09;;;2.10
80962;BMP280;70424;55.154;14.722;2024-01-15T05:51:55;97805.69;;;2.20
80962;BMP280;70424;55.154;14.722;2024-01-15T05:54:21;97802.19;;;2.18
80962;BMP280;70424;55.154;14.722;2024-01-15T05:56:46;97789.31;;;1.91
80962;BMP280;70424;55.154;14.722;2024-01-15T05:59:12;97803.06;;;2.09
80962;BMP280;70424;55.154;14.722;2024-01-15T06:01:37;97809.28;;;2.00
80962;BMP280;70424;55.154;14.722;2024-01-15T06:04:02;97820.16;;;2.02
80962;BMP280;70424;55.154;14.722;2024-01-15T06:06:28;97826.31;;;1.90
80962;BMP280;70424;55.154;14.722;2024-01-15T06:08:53;97830.56;;;1.82
80962;BMP280;70424;55.154;14.722;2024-01-15T06:11:19;97827.41;;;1.74
80962;BMP280;70424;55.154;14.722;2024-01-15T06:13:44;97815.78;;;1.57
80962;BMP280;70424;55.154;14.722;2024-01-15T06:16:14;97818.22;;;1.53
80962;BMP280;70424;55.154;14.722;2024-01-15T06:18:45;97852.13;;;1.70
80962;BMP280;70424;55.154;14.722;2024-01-15T06:21:11;97831.44;;;1.61
80962;BMP280;70424;55.154;14.722;2024-01-15T06:23:38;97845.81;;;1.65
80962;BMP280;70424;55.154;14.722;2024-01-15T06:26:04;97837.41;;;1.59
80962;BMP280;70424;55.154;14.722;2024-01-15T06:28:29;97822.47;;;1.45
80962;BMP280;70424;55.154;14.722;2024-01-15T06:30:54;97864.41;;;1.73
80962;BMP280;70424;55.154;14.722;2024-01-15T06:33:20;97861.88;;;1.63
80962;BMP280;70424;55.154;14.722;2024-01-15T06:35:45;97850.06;;;1.45
80962;BMP280;70424;55.154;14.722;2024-01-15T06:38:11;97875.53;;;1.68
80962;BMP280;70424;55.154;14.722;2024-01-15T06:40:36;97878.56;;;1.62
80962;BMP280;70424;55.154;14.722;2024-01-15T06:43:02;97854.41;;;1.38
80962;BMP280;70424;55.154;14.722;2024-01-15T06:45:27;97882.56;;;1.61
80962;BMP280;70424;55.154;14.722;2024-01-15T06:47:53;97864.44;;;1.50
80962;BMP280;70424;55.154;14.722;2024-01-15T06:50:18;97859.78;;;1.38
80962;BMP280;70424;55.154;14.722;2024-01-15T06:52:44;97873.94;;;1.39
80962;BMP280;70424;55.154;14.722;2024-01-15T06:55:09;97873.22;;;1.38
80962;BMP280;70424;55.154;14.722;2024-01-15T06:57:35;97888.19;;;1.53
80962;BMP280;70424;55.154;14.722;2024-01-15T07:00:00;97882.47;;;1.59
80962;BMP280;70424;55.154;14.722;2024-01-15T07:02:26;97887.50;;;1.53
80962;BMP280;70424;55.154;14.722;2024-01-15T07:04:52;97875.19;;;1.50
80962;BMP280;70424;55.154;14.722;2024-01-15T07:07:17;97856.94;;;1.36
80962;BMP280;70424;55.154;14.722;2024-01-15T07:09:42;97895.22;;;1.58
80962;BMP280;70424;55.154;14.722;2024-01-15T07:12:08;97904.94;;;1.63
80962;BMP280;70424;55.154;14.722;2024-01-15T07:14:33;97903.88;;;1.57
80962;BMP280;70424;55.154;14.722;2024-01-15T07:16:59;97906.78;;;1.61
80962;BMP280;70424;55.154;14.722;2024-01-15T07:19:24;97889.38;;;1.50
80962;BMP280;70424;55.154;14.722;2024-01-15T07:21:50;97897.44;;;1.50
80962;BMP280;70424;55.154;14.722;2024-01-15T07:24:15;97901.28;;;1.59
80962;BMP280;70424;55.154;14.722;2024-01-15T07:26:41;97889.47;;;1.52
80962;BMP280;70424;55.154;14.722;2024-01-15T07:29:06;97903.50;;;1.62
80962;BMP280;70424;55.154;14.722;2024-01-15T07:31:31;97914.84;;;1.61
80962;BMP280;70424;55.154;14.722;2024-01-15T07:33:57;97890.28;;;1.43
80962;BMP280;70424;55.154;14.722;2024-01-15T07:36:23;97912.88;;;1.61
80962;BMP280;70424;55.154;14.722;2024-01-15T07:38:48;97913.91;;;1.56
80962;BMP280;70424;55.154;14.722;2024-01-15T07:41:13;97933.09;;;1.62
80962;BMP280;70424;55.154;14.722;2024-01-15T07:43:39;97936.84;;;1.69
80962;BMP280;70424;55.154;14.722;2024-01-15T07:46:04;97930.56;;;1.64
80962;BMP280;70424;55.154;14.722;2024-01-15T07:48:30;97943.53;;;1.68
80962;BMP280;70424;55.154;14.722;2024-01-15T07:50:55;97929.25;;;1.65
80962;BMP280;70424;55.154;14.722;2024-01-15T07:53:21;97924.47;;;1.52
80962;BMP280;70424;55.154;14.722;2024-01-15T07:55:46;97953.25;;;1.73
80962;BMP280;70424;55.154;14.722;2024-01-15T07:58:11;97936.97;;;1.71
80962;BMP280;70424;55.154;14.722;2024-01-15T08:00:37;97943.66;;;1.70
80962;BMP280;70424;55.154;14.722;2024-01-15T08:03:02;97918.03;;;1.46
80962;BMP280;70424;55.154;14.722;2024-01-15T08:05:28;97951.72;;;1.70
80962;BMP280;70424;55.154;14.722;2024-01-15T08:07:53;97943.06;;;1.72
80962;BMP280;70424;55.154;14.722;2024-01-15T08:10:19;97962.13;;;1.76
80962;BMP280;70424;55.154;14.722;2024-01-15T08:12:44;97953.59;;;1.79
80962;BMP280;70424;55.154;14.722;2024-01-15T08:15:10;97943.06;;;1.72
80962;BMP280;70424;55.154;14.722;2024-01-15T08:17:35;97955.47;;;1.77
80962;BMP280;70424;55.154;14.722;2024-01-15T08:20:00;97961.78;;;1.81
80962;BMP280;70424;55.154;14.722;2024-01-15T08:22:26;97950.66;;;1.75
80962;BMP280;70424;55.154;14.722;2024-01-15T08:24:51;97940.38;;;1.72
80962;BMP280;70424;55.154;14.722;2024-01-15T08:27:17;97945.28;;;1.75
80962;BMP280;70424;55.154;14.722;2024-01-15T08:29:42;97941.88;;;1.75
80962;BMP280;70424;55.154;14.722;2024-01-15T08:32:08;97933.09;;;1.62
80962;BMP280;70424;55.154;14.722;2024-01-15T08:34:39;97932.19;;;1.70
80962;BMP280;70424;55.154;14.722;2024-01-15T08:37:04;97948.34;;;1.70
80962;BMP280;70424;55.154;14.722;2024-01-15T08:39:30;97965.50;;;1.88
80962;BMP280;70424;55.154;14.722;2024-01-15T08:41:55;97941.88;;;1.75
80962;BMP280;70424;55.154;14.722;2024-01-15T08:44:21;97938.72;;;1.67
80962;BMP280;70424;55.154;14.722;2024-01-15T08:46:46;97935.59;;;1.70
80962;BMP280;70424;55.154;14.722;2024-01-15T08:49:11;97955.34;;;1.75
80962;BMP280;70424;55.154;14.722;2024-01-15T08:51:37;97950.56;;;1.73
80962;BMP280;70424;55.154;14.722;2024-01-15T08:54:03;97964.59;;;1.83
80962;BMP280;70424;55.154;14.722;2024-01-15T08:56:28;97965.31;;;1.84
80962;BMP280;70424;55.154;14.722;2024-01-15T08:58:54;97971.72;;;1.90
80962;BMP280;70424;55.154;14.722;2024-01-15T09:01:19;97949.41;;;1.76
80962;BMP280;70424;55.154;14.722;2024-01-15T09:03:45;97980.84;;;1.97
80962;BMP280;70424;55.154;14.722;2024-01-15T09:06:11;97975.47;;;1.97
80962;BMP280;70424;55.154;14.722;2024-01-15T09:08:37;97969.41;;;1.85
80962;BMP280;70424;55.154;14.722;2024-01-15T09:11:02;97969.50;;;1.87
80962;BMP280;70424;55.154;14.722;2024-01-15T09:13:29;97970.88;;;1.88
80962;BMP280;70424;55.154;14.722;2024-01-15T09:15:54;97970.88;;;1.88
80962;BMP280;70424;55.154;14.722;2024-01-15T09:18:19;97993.47;;;1.94
80962;BMP280;70424;55.154;14.722;2024-01-15T09:20:45;98008.69;;;2.02
80962;BMP280;70424;55.154;14.722;2024-01-15T09:23:10;97982.28;;;1.86
80962;BMP280;70424;55.154;14.722;2024-01-15T09:25:36;97997.09;;;1.87
80962;BMP280;70424;55.154;14.722;2024-01-15T09:28:01;98009.28;;;2.00
80962;BMP280;70424;55.154;14.722;2024-01-15T09:30:27;98007.88;;;1.87
80962;BMP280;70424;55.154;14.722;2024-01-15T09:32:52;98034.91;;;2.01
80962;BMP280;70424;55.154;14.722;2024-01-15T09:35:18;98023.78;;;1.95
80962;BMP280;70424;55.154;14.722;2024-01-15T09:37:43;98045.59;;;1.99
80962;BMP280;70424;55.154;14.722;2024-01-15T09:40:12;98043.59;;;2.00
80962;BMP280;70424;55.154;14.722;2024-01-15T09:42:40;98041.13;;;1.92
80962;BMP280;70424;55.154;14.722;2024-01-15T09:45:07;98041.75;;;1.79
80962;BMP280;70424;55.154;14.722;2024-01-15T09:47:32;98051.78;;;1.90
80962;BMP280;70424;55.154;14.722;2024-01-15T09:49:58;98062.56;;;1.90
80962;BMP280;70424;55.154;14.722;2024-01-15T09:52:25;98037.03;;;1.68
80962;BMP280;70424;55.154;14.722;2024-01-15T09:54:51;98061.13;;;1.89
80962;BMP280;70424;55.154;14.722;2024-01-15T09:57:17;98075.09;;;1.85
80962;BMP280;70424;55.154;14.722;2024-01-15T09:59:43;98073.81;;;1.86
80962;BMP280;70424;55.154;14.722;2024-01-15T10:02:12;98056.59;;;1.80
80962;BMP280;70424;55.154;14.722;2024-01-15T10:04:39;98071.34;;;1.79
80962;BMP280;70424;55.154;14.722;2024-01-15T10:07:05;98068.78;;;1.81
80962;BMP280;70424;55.154;14.722;2024-01-15T10:09:32;98078.25;;;1.82
80962;BMP280;70424;55.154;14.722;2024-01-15T10:11:57;98078.03;;;1.78
80962;BMP280;70424;55.154;14.722;2024-01-15T10:14:23;98086.66;;;1.88
80962;BMP280;70424;55.154;14.722;2024-01-15T10:16:49;98072.50;;;1.76
80962;BMP280;70424;55.154;14.722;2024-01-15T10:19:14;98101.44;;;1.87
80962;BMP280;70424;55.154;14.722;2024-01-15T10:21:40;98090.53;;;1.73
80962;BMP280;70424;55.154;14.722;2024-01-15T10:24:05;98092.66;;;1.86
80962;BMP280;70424;55.154;14.722;2024-01-15T10:26:32;98091.00;;;1.70
80962;BMP280;70424;55.154;14.722;2024-01-15T10:29:00;98111.41;;;1.84
80962;BMP280;70424;55.154;14.722;2024-01-15T10:31:27;98110.34;;;1.78
80962;BMP280;70424;55.154;14.722;2024-01-15T10:33:53;98126.59;;;1.80
80962;BMP280;70424;55.154;14.722;2024-01-15T10:36:18;98113.69;;;1.67
80962;BMP280;70424;55.154;14.722;2024-01-15T10:38:44;98128.06;;;1.59
80962;BMP280;70424;55.154;14.722;2024-01-15T10:41:10;98118.59;;;1.58
80962;BMP280;70424;55.154;14.722;2024-01-15T10:43:36;98126.66;;;1.58
80962;BMP280;70424;55.154;14.722;2024-01-15T10:46:02;98146.47;;;1.75
80962;BMP280;70424;55.154;14.722;2024-01-15T10:48:28;98153.75;;;1.72
80962;BMP280;70424;55.154;14.722;2024-01-15T10:50:56;98134.97;;;1.62
80962;BMP280;70424;55.154;14.722;2024-01-15T10:53:23;98153.50;;;1.68
80962;BMP280;70424;55.154;14.722;2024-01-15T10:55:50;98163.69;;;1.70
80962;BMP280;70424;55.154;14.722;2024-01-15T10:58:16;98159.34;;;1.64
80962;BMP280;70424;55.154;14.722;2024-01-15T11:00:42;98186.78;;;1.84
80962;BMP280;70424;55.154;14.722;2024-01-15T11:03:09;98182.13;;;1.85
80962;BMP280;70424;55.154;14.722;2024-01-15T11:05:53;98154.78;;;1.67
80962;BMP280;70424;55.154;14.722;2024-01-15T11:08:18;98195.09;;;1.88
80962;BMP280;70424;55.154;14.722;2024-01-15T11:10:50;98179.88;;;1.81
80962;BMP280;70424;55.154;14.722;2024-01-15T11:13:22;98187.72;;;1.77
80962;BMP280;70424;55.154;14.722;2024-01-15T11:16:03;98208.53;;;1.88
80962;BMP280;70424;55.154;14.722;2024-01-15T11:18:37;98194.50;;;1.78
80962;BMP280;70424;55.154;14.722;2024-01-15T11:29:06;98230.34;;;1.92
80962;BMP280;70424;55.154;14.722;2024-01-15T11:34:08;98231.06;;;1.93
80962;BMP280;70424;55.154;14.722;2024-01-15T11:42:05;98238.66;;;1.85
80962;BMP280;70424;55.154;14.722;2024-01-15T11:44:30;98250.84;;;1.86
80962;BMP280;70424;55.154;14.722;2024-01-15T11:47:00;98255.41;;;1.83
80962;BMP280;70424;55.154;14.722;2024-01-15T11:52:21;98253.03;;;1.78
80962;BMP280;70424;55.154;14.722;2024-01-15T11:57:53;98276.41;;;1.75
80962;BMP280;70424;55.154;14.722;2024-01-15T12:00:22;98271.03;;;1.75
80962;BMP280;70424;55.154;14.722;2024-01-15T12:02:48;98262.00;;;1.71
80962;BMP280;70424;55.154;14.722;2024-01-15T12:05:18;98275.47;;;1.71
80962;BMP280;70424;55.154;14.722;2024-01-15T12:07:49;98273.34;;;1.69
80962;BMP280;70424;55.154;14.722;2024-01-15T12:10:16;98283.41;;;1.69
80962;BMP280;70424;55.154;14.722;2024-01-15T12:13:05;98303.53;;;1.68
80962;BMP280;70424;55.154;14.722;2024-01-15T12:15:31;98307.97;;;1.63
80962;BMP280;70424;55.154;14.722;2024-01-15T12:18:01;98301.88;;;1.62
80962;BMP280;70424;55.154;14.722;2024-01-15T12:20:30;98301.47;;;1.56
80962;BMP280;70424;55.154;14.722;2024-01-15T12:22:56;98308.84;;;1.56
80962;BMP280;70424;55.154;14.722;2024-01-15T12:25:25;98316.38;;;1.57
80962;BMP280;70424;55.154;14.722;2024-01-15T12:27:54;98331.94;;;1.59
80962;BMP280;70424;55.154;14.722;2024-01-15T12:30:20;98342.44;;;1.55
80962;BMP280;70424;55.154;14.722;2024-01-15T12:32:46;98339.91;;;1.47
80962;BMP280;70424;55.154;14.722;2024-01-15T12:35:14;98362.63;;;1.44
80962;BMP280;70424;55.154;14.722;2024-01-15T12:37:41;98361.13;;;1.31
80962;BMP280;70424;55.154;14.722;2024-01-15T12:40:08;98370.09;;;1.24
80962;BMP280;70424;55.154;14.722;2024-01-15T12:42:35;98374.78;;;1.14
80962;BMP280;70424;55.154;14.722;2024-01-15T12:45:00;98358.69;;;0.95
80962;BMP280;70424;55.154;14.722;2024-01-15T12:47:26;98377.25;;;0.91
80962;BMP280;70424;55.154;14.722;2024-01-15T12:49:52;98389.28;;;0.90
80962;BMP280;70424;55.154;14.722;2024-01-15T12:52:21;98391.53;;;0.83
80962;BMP280;70424;55.154;14.722;2024-01-15T12:54:48;98396.25;;;0.73
80962;BMP280;70424;55.154;14.722;2024-01-15T12:57:13;98397.94;;;0.69
80962;BMP280;70424;55.154;14.722;2024-01-15T12:59:39;98413.66;;;0.63
80962;BMP280;70424;55.154;14.722;2024-01-15T13:02:04;98425.13;;;0.53
80962;BMP280;70424;55.154;14.722;2024-01-15T13:04:30;98395.00;;;0.26
80962;BMP280;70424;55.154;14.722;2024-01-15T13:06:56;98448.88;;;0.47
80962;BMP280;70424;55.154;14.722;2024-01-15T13:09:22;98423.84;;;0.25
80962;BMP280;70424;55.154;14.722;2024-01-15T13:11:47;98435.72;;;0.32
80962;BMP280;70424;55.154;14.722;2024-01-15T13:14:13;98460.03;;;0.34
80962;BMP280;70424;55.154;14.722;2024-01-15T13:16:42;98470.94;;;0.26
80962;BMP280;70424;55.154;14.722;2024-01-15T13:19:10;98472.03;;;0.14
80962;BMP280;70424;55.154;14.722;2024-01-15T13:21:42;98458.00;;;0.06
80962;BMP280;70424;55.154;14.722;2024-01-15T13:24:07;98488.69;;;0.12
80962;BMP280;70424;55.154;14.722;2024-01-15T13:26:33;98503.97;;;0.10
80962;BMP280;70424;55.154;14.722;2024-01-15T13:29:05;98497.13;;;-0.01
80962;BMP280;70424;55.154;14.722;2024-01-15T13:31:31;98523.84;;;-0.03
80962;BMP280;70424;55.154;14.722;2024-01-15T13:33:57;98496.06;;;-0.25
80962;BMP280;70424;55.154;14.722;2024-01-15T13:36:23;98538.44;;;-0.23
80962;BMP280;70424;55.154;14.722;2024-01-15T13:38:52;98555.81;;;-0.24
80962;BMP280;70424;55.154;14.722;2024-01-15T13:41:19;98562.16;;;-0.30
80962;BMP280;70424;55.154;14.722;2024-01-15T13:43:49;98561.66;;;-0.36
80962;BMP280;70424;55.154;14.722;2024-01-15T13:46:15;98571.94;;;-0.42
80962;BMP280;70424;55.154;14.722;2024-01-15T13:48:42;98566.34;;;-0.54
80962;BMP280;70424;55.154;14.722;2024-01-15T13:51:08;98554.69;;;-0.66
80962;BMP280;70424;55.154;14.722;2024-01-15T13:53:33;98585.94;;;-0.61
80962;BMP280;70424;55.154;14.722;2024-01-15T13:55:59;98612.59;;;-0.63
80962;BMP280;70424;55.154;14.722;2024-01-15T13:58:24;98609.13;;;-0.73
80962;BMP280;70424;55.154;14.722;2024-01-15T14:00:51;98608.91;;;-0.85
80962;BMP280;70424;55.154;14.722;2024-01-15T14:03:17;98624.81;;;-0.87
80962;BMP280;70424;55.154;14.722;2024-01-15T14:05:43;98635.41;;;-0.89
80962;BMP280;70424;55.154;14.722;2024-01-15T14:08:08;98647.22;;;-0.92
80962;BMP280;70424;55.154;14.722;2024-01-15T14:10:33;98631.44;;;-1.05
80962;BMP280;70424;55.154;14.722;2024-01-15T14:12:59;98647.84;;;-1.01
80962;BMP280;70424;55.154;14.722;2024-01-15T14:15:24;98621.78;;;-1.25
80962;BMP280;70424;55.154;14.722;2024-01-15T14:17:49;98663.44;;;-1.07
80962;BMP280;70424;55.154;14.722;2024-01-15T14:20:15;98671.13;;;-1.11
80962;BMP280;70424;55.154;14.722;2024-01-15T14:22:40;98671.69;;;-1.13
80962;BMP280;70424;55.154;14.722;2024-01-15T14:25:07;98677.47;;;-1.16